Time;durP1;ratioP1;P1;durP2;ratioP2;P2;SDS_P1;SDS_P2;PMS_P1;PMS_P2;Temp;Humidity;BMP_temperature;BMP_pressure;BME280_temperature;BME280_humidity;BME280_pressure;Samples;Min_cycle;Max_cycle;Signal;HPM_P1;HPM_P2
2023/10/23 00:00:10;;;;;;;8.07;5.15;;;8.30;99.90;;;;;;5055919;28;20355;-64
2023/10/23 00:02:38;;;;;;;8.05;5.57;;;8.30;99.90;;;;;;5072396;28;20169;-65
2023/10/23 00:05:05;;;;;;;6.22;5.32;;;8.30;99.90;;;;;;5071568;28;20094;-64
2023/10/23 00:07:31;;;;;;;7.10;5.07;;;8.20;99.90;;;;;;5071817;28;20067;-64
2023/10/23 00:09:58;;;;;;;7.13;5.70;;;8.30;99.90;;;;;;5090008;28;20048;-65
2023/10/23 00:12:24;;;;;;;6.95;5.18;;;8.10;99.90;;;;;;5092461;28;20067;-64
2023/10/23 00:14:50;;;;;;;6.53;5.93;;;8.10;99.90;;;;;;5092090;28;20055;-64
2023/10/23 00:17:17;;;;;;;9.25;6.22;;;8.30;99.90;;;;;;5092013;28;20421;-64
2023/10/23 00:19:43;;;;;;;6.55;5.93;;;8.30;99.90;;;;;;5079849;28;20078;-64
2023/10/23 00:22:09;;;;;;;7.57;5.90;;;8.10;99.90;;;;;;5059473;28;20077;-62
2023/10/23 00:24:36;;;;;;;6.75;5.25;;;8.10;99.90;;;;;;5075269;28;20063;-65
2023/10/23 00:27:02;;;;;;;7.65;5.70;;;8.10;99.90;;;;;;5059194;28;20062;-65
2023/10/23 00:29:28;;;;;;;8.10;5.68;;;8.10;99.90;;;;;;5089939;28;20040;-64
2023/10/23 00:31:55;;;;;;;8.90;5.03;;;8.20;99.90;;;;;;5096031;28;20055;-64
2023/10/23 00:34:21;;;;;;;9.00;5.55;;;8.20;99.90;;;;;;5095469;28;20051;-65
2023/10/23 00:36:47;;;;;;;8.93;5.35;;;8.20;99.90;;;;;;5095653;28;20100;-65
2023/10/23 00:39:14;;;;;;;7.65;5.35;;;8.10;99.90;;;;;;5102164;28;20113;-65
2023/10/23 00:41:42;;;;;;;8.15;5.45;;;8.20;99.90;;;;;;5076015;28;20047;-64
2023/10/23 00:44:08;;;;;;;6.50;5.10;;;8.20;99.90;;;;;;5071544;28;20279;-65
2023/10/23 00:46:35;;;;;;;6.75;4.93;;;8.10;99.90;;;;;;5072034;28;20075;-64
2023/10/23 00:49:01;;;;;;;5.03;4.50;;;8.20;99.90;;;;;;5081916;28;20052;-65
2023/10/23 00:51:28;;;;;;;5.95;5.22;;;8.10;99.90;;;;;;5092100;28;20044;-65
2023/10/23 00:53:55;;;;;;;6.93;5.18;;;8.10;99.90;;;;;;5092305;28;20228;-64
2023/10/23 00:56:22;;;;;;;7.50;5.82;;;8.00;99.90;;;;;;5091825;28;20039;-64
2023/10/23 00:58:49;;;;;;;6.10;5.00;;;7.90;99.90;;;;;;5083839;28;20036;-64
2023/10/23 01:01:16;;;;;;;9.20;5.97;;;7.90;99.90;;;;;;5072088;28;20124;-64
2023/10/23 01:03:43;;;;;;;6.15;5.55;;;8.10;99.90;;;;;;5071523;28;20488;-64
2023/10/23 01:06:10;;;;;;;9.40;5.53;;;7.90;99.90;;;;;;5071381;28;20052;-63
2023/10/23 01:08:37;;;;;;;6.82;6.05;;;8.00;99.90;;;;;;5078097;28;20435;-64
2023/10/23 01:11:03;;;;;;;6.50;5.22;;;7.90;99.90;;;;;;5091832;28;20044;-64
2023/10/23 01:13:30;;;;;;;6.72;4.82;;;7.90;99.90;;;;;;5091814;28;20051;-64
2023/10/23 01:15:56;;;;;;;6.30;4.95;;;8.00;99.90;;;;;;5091203;28;20040;-64
2023/10/23 01:18:23;;;;;;;8.57;5.47;;;8.00;99.90;;;;;;5087135;28;20048;-64
2023/10/23 01:20:49;;;;;;;7.55;5.50;;;7.80;99.90;;;;;;5071226;28;20068;-64
2023/10/23 01:23:15;;;;;;;8.63;6.28;;;7.90;99.90;;;;;;5071766;28;20424;-63
2023/10/23 01:25:42;;;;;;;7.57;6.13;;;7.90;99.90;;;;;;5071326;28;20412;-62
2023/10/23 01:28:08;;;;;;;8.05;6.00;;;7.90;99.90;;;;;;5073154;28;20057;-63
2023/10/23 01:30:34;;;;;;;7.68;5.82;;;7.80;99.90;;;;;;5090626;28;20054;-66
2023/10/23 01:33:01;;;;;;;10.55;5.82;;;7.80;99.90;;;;;;5074664;28;20048;-64
2023/10/23 01:35:27;;;;;;;7.72;6.20;;;7.90;99.90;;;;;;5090683;28;20383;-63
2023/10/23 01:37:53;;;;;;;6.55;5.85;;;7.70;99.90;;;;;;5090666;28;20366;-63
2023/10/23 01:40:20;;;;;;;7.05;5.95;;;7.90;99.90;;;;;;5071495;28;20123;-64
2023/10/23 01:42:49;;;;;;;7.93;5.63;;;7.70;99.90;;;;;;5073538;28;20118;-65
2023/10/23 01:45:15;;;;;;;6.45;5.80;;;7.80;99.90;;;;;;5074080;28;20105;-64
2023/10/23 01:47:42;;;;;;;7.78;5.68;;;7.70;99.90;;;;;;5074565;28;20515;-64
2023/10/23 01:50:08;;;;;;;7.75;5.63;;;7.80;99.90;;;;;;5093979;28;20463;-63
2023/10/23 01:52:34;;;;;;;6.35;5.25;;;7.90;99.90;;;;;;5094331;28;20109;-64
2023/10/23 01:55:01;;;;;;;7.60;5.03;;;7.70;99.90;;;;;;5093835;28;20474;-64
2023/10/23 01:57:28;;;;;;;7.47;5.80;;;7.60;99.90;;;;;;5094361;28;20443;-64
2023/10/23 01:59:55;;;;;;;5.88;5.28;;;7.80;99.90;;;;;;5111010;27;20051;-63
2023/10/23 02:02:21;;;;;;;6.78;5.03;;;7.60;99.90;;;;;;5114987;27;20367;-64
2023/10/23 02:04:48;;;;;;;7.47;5.40;;;7.70;99.90;;;;;;5097444;27;20112;-64
2023/10/23 02:07:14;;;;;;;6.53;5.93;;;7.60;99.90;;;;;;5114791;27;20055;-65
2023/10/23 02:09:40;;;;;;;7.90;5.45;;;7.70;99.90;;;;;;5099252;28;20059;-64
2023/10/23 02:12:06;;;;;;;9.15;5.97;;;7.60;99.90;;;;;;5094325;28;20047;-62
2023/10/23 02:14:33;;;;;;;7.18;5.43;;;7.50;99.90;;;;;;5094237;28;20051;-64
2023/10/23 02:16:59;;;;;;;7.63;5.63;;;7.50;99.90;;;;;;5094120;28;20421;-63
2023/10/23 02:19:25;;;;;;;6.80;5.70;;;7.50;99.90;;;;;;5106436;27;20047;-63
2023/10/23 02:21:51;;;;;;;6.05;5.28;;;7.50;99.90;;;;;;5114335;27;20051;-64
2023/10/23 02:24:19;;;;;;;6.30;5.10;;;7.50;99.90;;;;;;5113911;27;20467;-64
2023/10/23 02:26:46;;;;;;;5.97;5.10;;;7.50;99.90;;;;;;5114517;27;20517;-64
2023/10/23 02:29:13;;;;;;;9.57;6.75;;;7.50;99.90;;;;;;5086217;28;20056;-63
2023/10/23 02:31:39;;;;;;;7.50;4.95;;;7.50;99.90;;;;;;5094048;28;20063;-63
2023/10/23 02:34:06;;;;;;;6.63;5.00;;;7.40;99.90;;;;;;5093211;28;20050;-64
2023/10/23 02:36:32;;;;;;;7.90;5.70;;;7.50;99.90;;;;;;5076692;28;20054;-63
2023/10/23 02:38:59;;;;;;;11.52;6.10;;;7.40;99.90;;;;;;5101870;27;20051;-64
2023/10/23 02:41:29;;;;;;;7.05;5.20;;;7.30;99.90;;;;;;5114181;27;20058;-64
2023/10/23 02:43:55;;;;;;;6.65;5.47;;;7.40;99.90;;;;;;5113443;27;20059;-65
2023/10/23 02:46:22;;;;;;;6.50;5.38;;;7.30;99.90;;;;;;5113729;27;20134;-63
2023/10/23 02:48:48;;;;;;;6.90;5.70;;;7.20;99.90;;;;;;5106661;28;20416;-63
2023/10/23 02:51:14;;;;;;;6.82;5.93;;;7.20;99.90;;;;;;5093344;28;20058;-62
2023/10/23 02:53:40;;;;;;;6.80;6.10;;;7.30;99.90;;;;;;5093409;28;20175;-63
2023/10/23 02:56:13;;;;;;;8.77;6.03;;;7.30;99.90;;;;;;5093111;28;20348;-62
2023/10/23 02:58:40;;;;;;;6.57;5.80;;;7.30;99.90;;;;;;5099109;27;20151;-62
2023/10/23 03:01:20;;;;;;;7.43;5.70;;;7.30;99.90;;;;;;5113681;27;20054;-62
2023/10/23 03:03:47;;;;;;;7.10;5.72;;;7.40;99.90;;;;;;5114087;27;20045;-65
2023/10/23 03:06:14;;;;;;;11.15;6.78;;;7.40;99.90;;;;;;5113126;27;20062;-62
2023/10/23 03:08:40;;;;;;;7.45;5.32;;;7.20;99.90;;;;;;5107690;28;20348;-63
2023/10/23 03:11:07;;;;;;;7.18;5.65;;;7.30;99.90;;;;;;5093000;28;20179;-62
2023/10/23 03:13:34;;;;;;;6.50;5.90;;;7.20;99.90;;;;;;5093737;28;20570;-62
2023/10/23 03:16:00;;;;;;;6.55;5.65;;;7.10;99.90;;;;;;5092545;28;20040;-63
2023/10/23 03:18:27;;;;;;;7.50;5.75;;;7.20;99.90;;;;;;5096779;27;20054;-63
2023/10/23 03:21:01;;;;;;;8.18;6.78;;;7.30;99.90;;;;;;5113355;27;20072;-63
2023/10/23 03:23:29;;;;;;;8.50;6.82;;;7.20;99.90;;;;;;5096600;27;20066;-64
2023/10/23 03:25:56;;;;;;;7.95;6.65;;;7.10;99.90;;;;;;5112796;27;20054;-63
2023/10/23 03:28:23;;;;;;;8.73;6.18;;;7.20;99.90;;;;;;5093093;27;20451;-63
2023/10/23 03:30:49;;;;;;;7.30;6.60;;;7.10;99.90;;;;;;5112898;27;20099;-63
2023/10/23 03:33:15;;;;;;;7.53;6.82;;;7.10;99.90;;;;;;5113306;27;20094;-64
2023/10/23 03:35:42;;;;;;;7.32;6.50;;;7.30;99.90;;;;;;5095784;28;20051;-63
2023/10/23 03:38:09;;;;;;;7.95;6.10;;;7.30;99.90;;;;;;5111493;27;20044;-63
2023/10/23 03:40:35;;;;;;;9.88;6.30;;;7.20;99.90;;;;;;5092464;28;20069;-63
2023/10/23 03:43:01;;;;;;;7.50;6.03;;;7.20;99.90;;;;;;5092427;28;20491;-62
2023/10/23 03:45:28;;;;;;;8.30;5.90;;;7.20;99.90;;;;;;5075597;28;20328;-63
2023/10/23 03:47:54;;;;;;;7.30;6.20;;;7.20;99.90;;;;;;5075974;28;20047;-63
2023/10/23 03:50:20;;;;;;;7.88;5.90;;;7.20;99.90;;;;;;5072740;28;20044;-63
2023/10/23 03:52:46;;;;;;;8.55;5.65;;;7.30;99.90;;;;;;5055268;28;20052;-63
2023/10/23 03:55:13;;;;;;;9.50;6.28;;;7.20;99.90;;;;;;5071805;28;20082;-63
2023/10/23 03:57:39;;;;;;;7.50;5.78;;;7.20;99.90;;;;;;5071999;28;20048;-63
2023/10/23 04:00:06;;;;;;;7.68;6.05;;;7.20;99.90;;;;;;5088944;28;20051;-64
2023/10/23 04:02:32;;;;;;;7.45;6.05;;;7.40;99.90;;;;;;5075725;28;20078;-65
2023/10/23 04:04:58;;;;;;;5.85;5.15;;;7.30;99.90;;;;;;5091761;28;20052;-64
2023/10/23 04:07:24;;;;;;;7.60;6.53;;;7.40;99.90;;;;;;5092377;28;20051;-62
2023/10/23 04:09:51;;;;;;;6.43;5.82;;;7.30;99.90;;;;;;5076628;28;20052;-62
2023/10/23 04:12:17;;;;;;;10.00;5.13;;;7.20;99.90;;;;;;5072169;28;20054;-64
2023/10/23 04:14:46;;;;;;;10.63;7.18;;;7.20;99.90;;;;;;5071663;28;20498;-65
2023/10/23 04:17:13;;;;;;;7.38;5.97;;;7.10;99.90;;;;;;5072230;28;20048;-64
2023/10/23 04:19:39;;;;;;;6.28;5.43;;;7.00;99.90;;;;;;5085356;28;20073;-63
2023/10/23 04:22:06;;;;;;;8.63;5.78;;;6.90;99.90;;;;;;5075495;28;20112;-64
2023/10/23 04:24:32;;;;;;;6.40;5.53;;;6.90;99.90;;;;;;5092110;28;20040;-65
2023/10/23 04:26:59;;;;;;;7.32;5.78;;;6.80;99.90;;;;;;5092251;28;20055;-63
2023/10/23 04:29:25;;;;;;;5.88;5.25;;;6.70;99.90;;;;;;5080166;28;20050;-64
2023/10/23 04:31:51;;;;;;;8.15;5.25;;;6.70;99.90;;;;;;5071576;28;20059;-63
2023/10/23 04:34:17;;;;;;;6.53;5.30;;;6.80;99.90;;;;;;5071107;28;20052;-62
2023/10/23 04:36:44;;;;;;;6.75;5.50;;;6.70;99.90;;;;;;5071762;28;20051;-63
2023/10/23 04:39:10;;;;;;;6.55;5.88;;;6.60;99.90;;;;;;5080803;28;20074;-62
2023/10/23 04:41:36;;;;;;;7.35;5.18;;;6.60;99.90;;;;;;5075355;28;20471;-62
2023/10/23 04:44:03;;;;;;;8.63;6.28;;;6.70;99.90;;;;;;5091267;28;20096;-63
2023/10/23 04:46:29;;;;;;;6.43;5.28;;;6.70;99.90;;;;;;5086328;28;20058;-64
2023/10/23 04:48:56;;;;;;;8.63;6.18;;;6.80;99.90;;;;;;5062399;28;20109;-62
2023/10/23 04:51:22;;;;;;;6.30;5.70;;;6.70;99.90;;;;;;5091779;28;20044;-63
2023/10/23 04:53:48;;;;;;;8.25;5.88;;;6.80;99.90;;;;;;5074907;28;20043;-64
2023/10/23 04:56:15;;;;;;;7.28;5.90;;;6.80;99.90;;;;;;5092053;28;20055;-62
2023/10/23 04:58:41;;;;;;;8.52;6.40;;;6.90;99.90;;;;;;5070249;28;20063;-63
2023/10/23 05:01:18;;;;;;;7.65;5.82;;;6.60;99.90;;;;;;5080283;28;20457;-65
2023/10/23 05:03:44;;;;;;;7.50;5.95;;;6.90;99.90;;;;;;5073716;28;20113;-63
2023/10/23 05:06:10;;;;;;;8.10;5.72;;;6.70;99.90;;;;;;5103727;28;20048;-63
2023/10/23 05:08:36;;;;;;;8.27;6.10;;;6.80;99.90;;;;;;5084374;28;20623;-62
2023/10/23 05:11:07;;;;;;;7.18;6.30;;;6.60;99.90;;;;;;5084357;28;20504;-63
2023/10/23 05:13:33;;;;;;;8.55;5.72;;;6.60;99.90;;;;;;5076458;28;20070;-63
2023/10/23 05:16:06;;;;;;;7.88;5.50;;;6.50;99.90;;;;;;5082656;28;20139;-62
2023/10/23 05:18:33;;;;;;;11.27;6.85;;;6.70;99.90;;;;;;5091297;28;20040;-63
2023/10/23 05:21:11;;;;;;;8.02;6.13;;;6.70;99.90;;;;;;5082549;28;20051;-63
2023/10/23 05:23:39;;;;;;;8.77;6.15;;;6.70;99.90;;;;;;5094103;28;20071;-63
2023/10/23 05:26:06;;;;;;;7.85;7.05;;;6.50;99.90;;;;;;5093602;28;20432;-62
2023/10/23 05:28:33;;;;;;;9.95;7.15;;;6.50;99.90;;;;;;5092604;28;20044;-62
2023/10/23 05:30:59;;;;;;;8.23;6.88;;;6.60;99.90;;;;;;5111310;28;20074;-62
2023/10/23 05:33:25;;;;;;;7.20;6.45;;;6.80;99.90;;;;;;5094745;28;20048;-63
2023/10/23 05:36:05;;;;;;;8.82;6.57;;;6.60;99.90;;;;;;5094705;28;20040;-63
2023/10/23 05:38:32;;;;;;;9.57;6.60;;;6.60;99.90;;;;;;5093429;28;20048;-63
2023/10/23 05:40:59;;;;;;;7.88;6.95;;;6.70;99.90;;;;;;5094965;28;20056;-63
2023/10/23 05:43:26;;;;;;;7.80;6.72;;;6.70;99.90;;;;;;5093757;28;20459;-63
2023/10/23 05:45:53;;;;;;;9.13;6.57;;;6.70;99.90;;;;;;5092536;28;20052;-64
2023/10/23 05:48:20;;;;;;;9.30;6.20;;;6.50;99.90;;;;;;5091999;28;20359;-63
2023/10/23 05:50:55;;;;;;;8.98;7.72;;;6.60;99.90;;;;;;5093766;28;20081;-65
2023/10/23 05:53:21;;;;;;;9.13;7.18;;;6.50;99.90;;;;;;5094774;28;20052;-62
2023/10/23 05:55:47;;;;;;;8.75;7.05;;;6.60;99.90;;;;;;5111265;28;20040;-66
2023/10/23 05:58:14;;;;;;;8.82;7.28;;;6.70;99.90;;;;;;5076608;28;20055;-63
2023/10/23 06:00:40;;;;;;;8.93;6.82;;;6.40;99.90;;;;;;5090882;28;20471;-62
2023/10/23 06:03:08;;;;;;;10.35;8.35;;;6.50;99.90;;;;;;5102447;27;20447;-62
2023/10/23 06:05:40;;;;;;;11.70;8.68;;;6.60;99.90;;;;;;5091264;28;20048;-63
2023/10/23 06:08:06;;;;;;;10.18;7.57;;;6.60;99.90;;;;;;5094878;28;20108;-62
2023/10/23 06:10:42;;;;;;;12.07;9.85;;;6.60;99.90;;;;;;5081905;28;20067;-63
2023/10/23 06:13:09;;;;;;;10.13;8.43;;;6.70;99.90;;;;;;5069510;28;20500;-62
2023/10/23 06:15:35;;;;;;;9.77;8.57;;;6.60;99.90;;;;;;5075278;28;20361;-62
2023/10/23 06:18:02;;;;;;;13.32;8.48;;;6.80;99.90;;;;;;5075758;28;20070;-63
2023/10/23 06:20:28;;;;;;;11.52;9.32;;;6.70;99.90;;;;;;5075526;28;20063;-63
2023/10/23 06:22:55;;;;;;;11.15;8.75;;;6.60;99.90;;;;;;5058869;28;20059;-63
2023/10/23 06:25:21;;;;;;;12.25;9.02;;;6.70;99.90;;;;;;5075303;28;20048;-61
2023/10/23 06:27:47;;;;;;;10.70;8.73;;;6.80;99.90;;;;;;5083454;28;20044;-65
2023/10/23 06:30:14;;;;;;;12.00;9.00;;;6.70;99.90;;;;;;5091218;28;20051;-63
2023/10/23 06:32:40;;;;;;;11.82;9.07;;;6.90;99.90;;;;;;5095144;28;20051;-65
2023/10/23 06:35:06;;;;;;;11.93;9.65;;;6.70;99.90;;;;;;5095094;28;20096;-62
2023/10/23 06:37:33;;;;;;;11.38;8.77;;;6.90;99.90;;;;;;5093057;28;20047;-63
2023/10/23 06:39:59;;;;;;;11.73;8.73;;;6.90;99.90;;;;;;5074541;28;20047;-66
2023/10/23 06:42:26;;;;;;;12.18;10.10;;;6.80;99.90;;;;;;5095223;28;20120;-64
2023/10/23 06:44:52;;;;;;;12.70;9.18;;;6.80;99.90;;;;;;5091631;28;20082;-64
2023/10/23 06:47:19;;;;;;;14.40;10.10;;;7.00;99.90;;;;;;5091800;28;20141;-64
2023/10/23 06:49:45;;;;;;;18.40;11.82;;;7.00;99.90;;;;;;5078248;28;20400;-63
2023/10/23 06:52:13;;;;;;;11.52;9.50;;;6.90;99.90;;;;;;5054806;28;20052;-64
2023/10/23 06:54:39;;;;;;;12.90;9.30;;;6.80;99.90;;;;;;5071682;28;20056;-63
2023/10/23 06:57:08;;;;;;;11.55;8.55;;;6.80;99.90;;;;;;5089789;28;20051;-63
2023/10/23 06:59:36;;;;;;;13.43;9.75;;;7.00;99.90;;;;;;5079757;28;20044;-64
2023/10/23 07:02:02;;;;;;;14.25;9.57;;;6.80;99.90;;;;;;5071234;28;20076;-64
2023/10/23 07:04:29;;;;;;;12.20;9.85;;;7.00;99.90;;;;;;5071533;28;20045;-63
2023/10/23 07:06:56;;;;;;;13.23;11.23;;;7.00;99.90;;;;;;5071249;28;20361;-61
2023/10/23 07:09:22;;;;;;;15.48;12.48;;;7.00;99.90;;;;;;5080373;28;20552;-63
2023/10/23 07:11:49;;;;;;;16.00;11.80;;;7.10;99.90;;;;;;5071693;28;20063;-62
2023/10/23 07:14:15;;;;;;;12.45;9.73;;;7.00;99.90;;;;;;5071666;28;20056;-62
2023/10/23 07:16:42;;;;;;;15.25;11.07;;;7.10;99.90;;;;;;5067407;28;20040;-62
2023/10/23 07:19:10;;;;;;;13.20;10.93;;;7.20;99.90;;;;;;5085442;28;20067;-64
2023/10/23 07:21:40;;;;;;;14.00;10.13;;;7.40;99.90;;;;;;5071198;28;20443;-62
2023/10/23 07:24:06;;;;;;;13.23;10.50;;;7.40;99.90;;;;;;5070980;28;20048;-64
2023/10/23 07:26:33;;;;;;;14.07;10.55;;;7.50;99.90;;;;;;5054358;28;20057;-63
2023/10/23 07:28:59;;;;;;;13.02;10.85;;;7.80;99.90;;;;;;5076182;28;20067;-64
2023/10/23 07:31:25;;;;;;;15.32;10.63;;;7.80;99.90;;;;;;5091220;28;20124;-64
2023/10/23 07:33:52;;;;;;;21.55;12.20;;;7.90;99.90;;;;;;5091192;28;20044;-64
2023/10/23 07:36:18;;;;;;;15.15;11.23;;;8.30;99.90;;;;;;5091238;28;20087;-64
2023/10/23 07:38:45;;;;;;;15.38;10.82;;;8.40;99.90;;;;;;5086507;28;20044;-65
2023/10/23 07:41:12;;;;;;;13.55;10.80;;;8.50;99.90;;;;;;5054325;28;20056;-64
2023/10/23 07:43:39;;;;;;;14.40;10.70;;;8.40;99.90;;;;;;5054011;28;20075;-63
2023/10/23 07:46:08;;;;;;;14.15;10.85;;;8.40;99.90;;;;;;5054013;28;20123;-64
2023/10/23 07:48:35;;;;;;;15.65;11.02;;;8.70;99.90;;;;;;5073037;28;20070;-64
2023/10/23 07:51:03;;;;;;;14.43;10.07;;;8.60;99.90;;;;;;5090589;28;20052;-64
2023/10/23 07:53:35;;;;;;;14.35;10.65;;;8.80;99.90;;;;;;5091053;28;20056;-63
2023/10/23 07:56:04;;;;;;;13.88;10.75;;;8.80;99.90;;;;;;5074441;28;20596;-63
2023/10/23 07:58:30;;;;;;;13.57;10.45;;;9.00;99.90;;;;;;5089252;28;20641;-64
2023/10/23 08:01:07;;;;;;;13.43;10.50;;;8.90;99.90;;;;;;5078230;28;20060;-62
2023/10/23 08:03:34;;;;;;;13.90;10.45;;;8.90;99.90;;;;;;5085179;28;20040;-61
2023/10/23 08:06:03;;;;;;;13.75;10.77;;;8.90;99.90;;;;;;5090704;28;20052;-65
2023/10/23 08:08:35;;;;;;;15.77;11.45;;;9.30;99.90;;;;;;5071533;28;20429;-62
2023/10/23 08:11:06;;;;;;;12.45;10.55;;;9.20;99.90;;;;;;5077076;28;20063;-65
2023/10/23 08:13:33;;;;;;;15.90;11.13;;;9.30;99.90;;;;;;5053378;28;20041;-65
2023/10/23 08:16:00;;;;;;;16.52;10.77;;;9.30;99.90;;;;;;5070078;28;20148;-63
2023/10/23 08:18:26;;;;;;;16.08;10.82;;;9.20;99.90;;;;;;5053954;28;20094;-64
2023/10/23 08:20:52;;;;;;;15.10;10.93;;;9.40;99.90;;;;;;5090158;28;20079;-65
2023/10/23 08:23:18;;;;;;;13.57;9.50;;;9.30;99.90;;;;;;5073636;28;20059;-63
2023/10/23 08:25:45;;;;;;;13.90;9.57;;;9.20;99.90;;;;;;5090247;28;20044;-62
2023/10/23 08:28:11;;;;;;;15.23;11.13;;;9.50;99.90;;;;;;5090011;28;20073;-64
2023/10/23 08:30:37;;;;;;;14.35;11.05;;;9.40;99.90;;;;;;5089109;28;20062;-64
2023/10/23 08:33:05;;;;;;;21.98;10.88;;;9.30;99.90;;;;;;5090131;28;20085;-64
2023/10/23 08:35:32;;;;;;;17.13;10.45;;;9.50;99.90;;;;;;5073407;28;20379;-62
2023/10/23 08:37:58;;;;;;;14.80;11.02;;;9.60;99.90;;;;;;5089884;28;20109;-64
2023/10/23 08:40:24;;;;;;;19.50;10.52;;;9.40;99.90;;;;;;5074633;28;20050;-64
2023/10/23 08:42:51;;;;;;;13.65;9.65;;;9.60;99.90;;;;;;5076116;28;20056;-63
2023/10/23 08:45:18;;;;;;;16.52;9.88;;;9.30;99.90;;;;;;5076840;28;20048;-64
2023/10/23 08:47:45;;;;;;;15.23;10.40;;;9.50;99.90;;;;;;5076973;28;20056;-63
2023/10/23 08:50:11;;;;;;;12.15;9.55;;;9.50;99.90;;;;;;5093510;28;20054;-63
2023/10/23 08:52:49;;;;;;;12.80;10.35;;;9.50;99.90;;;;;;5096773;28;20051;-61
2023/10/23 08:55:18;;;;;;;12.55;10.55;;;9.70;99.90;;;;;;5105378;27;20419;-65
2023/10/23 08:57:52;;;;;;;12.27;10.65;;;9.70;99.90;;;;;;5117534;27;20051;-63
2023/10/23 09:00:22;;;;;;;13.60;10.45;;;9.80;99.90;;;;;;5100024;28;20497;-64
2023/10/23 09:02:52;;;;;;;13.23;10.25;;;9.60;99.90;;;;;;5097123;28;20059;-64
2023/10/23 09:05:19;;;;;;;17.70;12.07;;;9.60;99.90;;;;;;5096769;28;20059;-63
2023/10/23 09:07:45;;;;;;;16.92;10.85;;;9.80;99.90;;;;;;5097270;28;20050;-63
2023/10/23 09:10:12;;;;;;;16.52;11.63;;;9.70;99.90;;;;;;5105768;28;20055;-63
2023/10/23 09:12:39;;;;;;;16.50;12.20;;;10.00;99.90;;;;;;5096576;28;20048;-64
2023/10/23 09:15:16;;;;;;;15.40;11.57;;;10.00;99.90;;;;;;5096715;28;20614;-65
2023/10/23 09:17:46;;;;;;;18.92;12.50;;;9.90;99.90;;;;;;5095595;28;20448;-62
2023/10/23 09:20:24;;;;;;;16.23;13.00;;;10.10;99.90;;;;;;5112327;27;20091;-63
2023/10/23 09:22:52;;;;;;;16.13;11.68;;;10.10;99.90;;;;;;5117552;27;20059;-64
2023/10/23 09:25:19;;;;;;;13.95;11.05;;;10.10;99.90;;;;;;5117408;27;20081;-63
2023/10/23 09:27:46;;;;;;;15.82;11.90;;;10.10;99.90;;;;;;5117585;27;20089;-64
2023/10/23 09:30:13;;;;;;;17.42;13.02;;;10.00;99.90;;;;;;5101085;28;20051;-62
2023/10/23 09:32:40;;;;;;;17.17;12.18;;;10.50;99.90;;;;;;5096782;28;20108;-64
2023/10/23 09:35:08;;;;;;;21.00;11.45;;;10.30;99.90;;;;;;5096689;28;20055;-63
2023/10/23 09:37:36;;;;;;;24.63;11.38;;;10.20;99.90;;;;;;5079746;28;20539;-62
2023/10/23 09:40:11;;;;;;;30.40;10.20;;;10.20;99.90;;;;;;5128536;27;20509;-62
2023/10/23 09:42:39;;;;;;;14.35;10.52;;;10.40;99.90;;;;;;5117133;27;20455;-64
2023/10/23 09:45:06;;;;;;;15.25;10.48;;;10.10;99.90;;;;;;5117019;27;20051;-63
2023/10/23 09:47:32;;;;;;;26.30;10.98;;;10.30;99.90;;;;;;5116790;27;20066;-64
2023/10/23 09:50:01;;;;;;;21.23;11.75;;;10.20;99.90;;;;;;5102560;28;20063;-62
2023/10/23 09:52:27;;;;;;;19.88;12.02;;;10.30;99.90;;;;;;5113783;28;20040;-64
2023/10/23 09:54:59;;;;;;;19.85;11.88;;;10.30;99.90;;;;;;5096207;28;20429;-62
2023/10/23 09:57:31;;;;;;;;;;;10.40;99.90;;;;;;5096935;28;20051;-62
2023/10/23 10:00:01;;;;;;;15.50;10.60;;;10.40;99.90;;;;;;5133125;27;20331;-63
2023/10/23 10:02:32;;;;;;;16.63;11.25;;;10.50;99.90;;;;;;5116904;27;20066;-62
2023/10/23 10:05:09;;;;;;;17.85;12.82;;;10.50;99.90;;;;;;5116577;27;20047;-63
2023/10/23 10:08:01;;;;;;;16.23;12.05;;;10.80;99.90;;;;;;5115603;27;20047;-63
2023/10/23 10:10:28;;;;;;;18.00;11.60;;;10.80;99.90;;;;;;5116097;27;20047;-64
2023/10/23 10:12:56;;;;;;;16.25;12.32;;;11.10;99.90;;;;;;5090181;28;20130;-63
2023/10/23 10:15:23;;;;;;;17.23;11.95;;;11.30;99.90;;;;;;5095558;28;20498;-63
2023/10/23 10:17:50;;;;;;;16.10;12.38;;;11.20;99.90;;;;;;5096179;28;20055;-65
2023/10/23 10:20:21;;;;;;;14.20;11.32;;;11.40;99.90;;;;;;5111571;27;20054;-64
2023/10/23 10:23:04;;;;;;;17.25;12.45;;;11.10;99.90;;;;;;5116332;27;20051;-63
2023/10/23 10:25:32;;;;;;;17.15;12.73;;;11.50;99.90;;;;;;5116144;27;20356;-63
2023/10/23 10:28:03;;;;;;;13.82;11.20;;;11.60;99.90;;;;;;5116129;27;20440;-64
2023/10/23 10:30:58;;;;;;;30.50;20.90;;;11.70;99.90;;;;;;5098208;28;20486;-63
2023/10/23 10:33:29;;;;;;;30.92;22.30;;;11.50;99.90;;;;;;5074826;28;20341;-63
2023/10/23 10:36:07;;;;;;;18.65;13.57;;;11.90;99.90;;;;;;5096156;28;20055;-64
2023/10/23 10:38:35;;;;;;;19.88;14.65;;;11.60;99.90;;;;;;5096192;27;20044;-63
2023/10/23 10:41:03;;;;;;;17.08;13.00;;;12.00;99.90;;;;;;5116133;27;20047;-62
2023/10/23 10:43:40;;;;;;;20.83;15.07;;;11.70;99.90;;;;;;5112090;28;20062;-64
2023/10/23 10:46:26;;;;;;;15.55;12.40;;;11.90;99.90;;;;;;5112229;28;20051;-65
2023/10/23 10:48:54;;;;;;;17.58;13.02;;;11.90;99.90;;;;;;5108194;28;20052;-64
2023/10/23 10:51:25;;;;;;;18.35;12.35;;;11.70;99.90;;;;;;5091733;28;20063;-64
2023/10/23 10:54:10;;;;;;;14.98;12.10;;;11.90;99.90;;;;;;5092031;28;20044;-62
2023/10/23 10:56:36;;;;;;;13.45;11.48;;;12.00;99.90;;;;;;5092227;28;20052;-63
2023/10/23 10:59:04;;;;;;;15.43;11.05;;;11.90;99.90;;;;;;5096600;28;20074;-62
2023/10/23 11:01:31;;;;;;;13.65;11.63;;;12.10;99.90;;;;;;5112090;28;20047;-65
2023/10/23 11:03:57;;;;;;;14.80;12.50;;;12.00;99.90;;;;;;5111150;28;20089;-63
2023/10/23 11:06:24;;;;;;;15.15;11.30;;;11.90;99.90;;;;;;5111727;28;20054;-62
2023/10/23 11:08:51;;;;;;;16.02;12.15;;;11.90;99.90;;;;;;5108294;28;20509;-64
2023/10/23 11:11:17;;;;;;;18.70;12.52;;;11.80;99.90;;;;;;5107012;28;20602;-63
2023/10/23 11:13:44;;;;;;;17.75;12.30;;;11.70;99.90;;;;;;5112195;28;20043;-62
2023/10/23 11:16:15;;;;;;;19.30;12.20;;;11.90;99.90;;;;;;5111813;28;20075;-64
2023/10/23 11:18:42;;;;;;;18.70;14.02;;;11.80;99.90;;;;;;5109217;28;20101;-64
2023/10/23 11:21:09;;;;;;;17.70;12.57;;;11.70;99.90;;;;;;5090955;28;20485;-64
2023/10/23 11:23:35;;;;;;;19.13;13.10;;;11.80;99.90;;;;;;5091746;28;20075;-62
2023/10/23 11:26:02;;;;;;;17.42;13.10;;;11.80;99.90;;;;;;5091293;28;20052;-63
2023/10/23 11:28:28;;;;;;;21.17;14.70;;;12.10;99.90;;;;;;5091188;28;20056;-65
2023/10/23 11:30:56;;;;;;;19.13;14.63;;;11.90;99.90;;;;;;5111249;28;20478;-64
2023/10/23 11:33:23;;;;;;;19.35;13.93;;;12.10;99.90;;;;;;5094460;28;20061;-64
2023/10/23 11:35:49;;;;;;;22.95;15.60;;;12.00;99.90;;;;;;5111324;28;20055;-62
2023/10/23 11:38:18;;;;;;;21.70;15.95;;;11.80;99.90;;;;;;5111362;28;20054;-64
2023/10/23 11:40:45;;;;;;;21.50;15.43;;;11.90;99.90;;;;;;5091993;28;20040;-64
2023/10/23 11:43:13;;;;;;;22.08;14.80;;;11.90;99.90;;;;;;5094432;28;20082;-64
2023/10/23 11:45:41;;;;;;;23.83;15.30;;;12.00;99.90;;;;;;5077725;28;20063;-64
2023/10/23 11:48:07;;;;;;;22.15;15.30;;;11.90;99.90;;;;;;5094288;28;20406;-65
2023/10/23 11:50:37;;;;;;;23.50;15.20;;;12.10;99.90;;;;;;5111573;27;20051;-64
2023/10/23 11:53:04;;;;;;;22.88;14.93;;;12.00;99.90;;;;;;5097651;27;20371;-63
2023/10/23 11:55:31;;;;;;;22.70;14.55;;;12.10;99.90;;;;;;5114826;28;20443;-64
2023/10/23 11:57:58;;;;;;;23.05;16.17;;;12.20;99.90;;;;;;5114222;28;20062;-64
2023/10/23 12:00:25;;;;;;;22.58;15.75;;;12.10;99.90;;;;;;5098270;28;20047;-63
2023/10/23 12:02:51;;;;;;;26.67;16.45;;;12.20;99.90;;;;;;5093990;28;20647;-63
2023/10/23 12:05:20;;;;;;;27.00;17.90;;;12.10;99.90;;;;;;5094553;28;20059;-63
2023/10/23 12:07:48;;;;;;;27.63;17.70;;;12.30;99.90;;;;;;5076877;28;20052;-64
2023/10/23 12:10:19;;;;;;;26.70;17.00;;;12.10;99.90;;;;;;5102411;28;20332;-64
2023/10/23 12:12:46;;;;;;;23.63;15.20;;;12.30;99.90;;;;;;5112186;28;20050;-65
2023/10/23 12:15:14;;;;;;;26.92;17.77;;;12.40;99.90;;;;;;5080566;28;20421;-64
2023/10/23 12:17:41;;;;;;;25.98;16.73;;;12.40;99.90;;;;;;5098159;28;20043;-66
2023/10/23 12:20:10;;;;;;;25.05;17.63;;;12.20;99.90;;;;;;5111702;27;20055;-63
2023/10/23 12:22:38;;;;;;;26.08;16.35;;;12.40;99.90;;;;;;5136577;27;20378;-64
2023/10/23 12:25:05;;;;;;;24.20;16.13;;;12.40;99.90;;;;;;5118532;27;20043;-63
2023/10/23 12:27:33;;;;;;;24.38;16.98;;;12.20;99.90;;;;;;5118773;27;20047;-65
2023/10/23 12:30:05;;;;;;;23.98;16.67;;;12.50;99.90;;;;;;5105300;28;20658;-65
2023/10/23 12:32:32;;;;;;;26.92;16.65;;;12.30;99.90;;;;;;5114814;27;20055;-65
2023/10/23 12:34:59;;;;;;;24.42;15.95;;;12.40;99.90;;;;;;5118266;27;20096;-63
2023/10/23 12:37:26;;;;;;;25.50;16.65;;;12.50;99.90;;;;;;5118463;27;20050;-65
2023/10/23 12:39:54;;;;;;;26.08;16.63;;;12.50;99.90;;;;;;5124207;27;20119;-64
2023/10/23 12:42:21;;;;;;;24.35;16.27;;;12.40;99.90;;;;;;5097957;28;20056;-65
2023/10/23 12:44:48;;;;;;;22.73;15.75;;;12.50;99.90;;;;;;5080822;28;20058;-63
2023/10/23 12:47:14;;;;;;;24.35;15.98;;;12.40;99.90;;;;;;5097783;28;20116;-62